Aviation Digital Data Service (ADDS)

Output produced by METARs form (0941 UTC 20 October 2014)
found at http://aviationweather.gov/adds/metars/
 
KLCH 200520Z 2006/2106 05006KT P6SM SCT200